Cienfuegus, Cuba
Current Conditions -  °F | °C
As of 6:50 PM on Thursday 27 Nov 2014 (Local Time) from MUSC Reporting Station
Broken Clouds Broken Clouds  
Wind Chill: 72°   Ceiling: 2500
Heat Index: 72°   Visibility: 6mi
Dew Point: 59°   Wind: 9mph
Humidity: 64%   Direction: 40°NE
Pressure: 30.15"   Gusts: NA
Location:  22.15°N, 80.4°W
Report Text: MUSC 272250Z 04008KT 9000 BKN025 22/15 Q1021
Loading
Personal Weather Stations






























Interactive Weather Map New forecast layout! Learn more

10-Day Weather Forecast

Advertisements
Track Severe Weather on mobile